Time;durP1;ratioP1;P1;durP2;ratioP2;P2;SDS_P1;SDS_P2;PMS_P1;PMS_P2;Temp;Humidity;BMP_temperature;BMP_pressure;BME280_temperature;BME280_humidity;BME280_pressure;Samples;Min_cycle;Max_cycle;Signal;HPM_P1;HPM_P2
2022/03/03 00:00:06;;;;;;;93.70;40.60;;;;;;;-5.56;70.91;100959.05;84790;1327;25329;-77
2022/03/03 00:02:35;;;;;;;81.60;37.10;;;;;;;-5.55;71.01;100957.94;84776;1325;24953;-78
2022/03/03 00:04:42;;;;;;;82.50;38.40;;;;;;;-5.54;71.47;100952.52;84752;1326;26466;-74
2022/03/03 00:06:49;;;;;;;78.00;37.90;;;;;;;-5.53;71.44;100947.45;84791;1330;22588;-75
2022/03/03 00:08:55;;;;;;;83.40;39.30;;;;;;;-5.51;71.44;100943.63;84764;1329;22633;-74
2022/03/03 00:11:02;;;;;;;82.30;37.60;;;;;;;-5.49;71.48;100941.66;84827;1326;23884;-75
2022/03/03 00:13:11;;;;;;;80.80;36.80;;;;;;;-5.48;71.35;100942.70;84085;1328;1016759;-74
2022/03/03 00:15:21;;;;;;;80.40;37.00;;;;;;;-5.49;71.30;100939.94;84771;1326;22948;-78
2022/03/03 00:17:31;;;;;;;85.10;38.60;;;;;;;-5.52;71.21;100937.14;84791;1326;22605;-78
2022/03/03 00:19:42;;;;;;;76.90;37.30;;;;;;;-5.56;71.34;100930.70;84814;1330;25259;-77
2022/03/03 00:21:49;;;;;;;79.30;38.00;;;;;;;-5.59;71.44;100929.73;84767;1327;22603;-78
2022/03/03 00:23:59;;;;;;;77.90;37.60;;;;;;;-5.63;71.59;100924.33;84613;1329;22672;-78
2022/03/03 00:26:04;;;;;;;;;;;;;;;-5.65;71.61;100918.95;84799;1326;22580;-78
2022/03/03 00:28:11;;;;;;;81.00;39.70;;;;;;;-5.71;71.83;100913.31;84754;1330;22582;-78
2022/03/03 00:30:17;;;;;;;77.60;37.80;;;;;;;-5.76;71.80;100908.90;84804;1326;22589;-77
2022/03/03 00:32:24;;;;;;;90.30;39.80;;;;;;;-5.79;71.77;100905.20;84772;1326;23075;-77
2022/03/03 00:34:30;;;;;;;85.20;41.30;;;;;;;-5.82;71.96;100906.77;84793;1322;22635;-75
2022/03/03 00:36:40;;;;;;;86.60;42.10;;;;;;;-5.83;72.04;100907.78;84788;1330;24276;-74
2022/03/03 00:38:49;;;;;;;78.80;38.90;;;;;;;-5.82;72.43;100904.95;84779;1326;22633;-74
2022/03/03 00:40:59;;;;;;;77.00;38.70;;;;;;;-5.79;72.59;100902.48;84739;1327;22662;-74
2022/03/03 00:43:09;;;;;;;72.70;36.80;;;;;;;-5.75;72.71;100902.30;84764;1327;22581;-73
2022/03/03 00:45:19;;;;;;;81.10;40.10;;;;;;;-5.70;72.92;100897.38;84683;1331;25434;-78
2022/03/03 00:47:25;;;;;;;89.40;40.80;;;;;;;-5.65;72.65;100901.11;84763;1326;22582;-78
2022/03/03 00:49:35;;;;;;;81.50;38.90;;;;;;;-5.65;72.74;100902.48;84771;1326;22613;-76
2022/03/03 00:51:42;;;;;;;86.40;39.40;;;;;;;-5.65;72.79;100903.36;84725;1325;26496;-78
2022/03/03 00:53:49;;;;;;;114.20;52.30;;;;;;;-5.66;72.77;100895.64;84788;1325;23986;-78
2022/03/03 00:55:59;;;;;;;118.10;50.20;;;;;;;-5.68;72.96;100890.29;84800;1329;22584;-78
2022/03/03 00:58:09;;;;;;;122.10;48.20;;;;;;;-5.73;72.91;100894.73;84090;1325;1003943;-79
2022/03/03 01:00:16;;;;;;;117.50;51.10;;;;;;;-5.77;72.74;100894.08;84766;1326;22580;-73
2022/03/03 01:02:23;;;;;;;119.80;47.60;;;;;;;-5.82;72.86;100889.48;84789;1325;26496;-74
2022/03/03 01:04:33;;;;;;;119.60;51.40;;;;;;;-5.86;72.73;100890.84;84069;1326;1003312;-78
2022/03/03 01:06:40;;;;;;;113.90;49.10;;;;;;;-5.89;72.77;100887.67;84808;1326;22583;-77
2022/03/03 01:08:47;;;;;;;100.00;45.50;;;;;;;-5.90;72.66;100887.30;84768;1329;22583;-78
2022/03/03 01:10:54;;;;;;;109.10;47.20;;;;;;;-5.90;72.84;100883.25;84766;1326;22608;-73
2022/03/03 01:13:04;;;;;;;97.40;45.60;;;;;;;-5.88;73.10;100882.64;84732;1321;22604;-73
2022/03/03 01:15:11;;;;;;;106.40;46.40;;;;;;;-5.86;73.04;100885.06;84781;1330;25464;-74
2022/03/03 01:17:18;;;;;;;96.60;45.20;;;;;;;-5.86;73.13;100886.27;84781;1329;22586;-73
2022/03/03 01:19:25;;;;;;;92.30;41.80;;;;;;;-5.87;73.08;100888.44;84088;1326;1002934;-74
2022/03/03 01:21:32;;;;;;;97.80;42.40;;;;;;;-5.88;73.06;100881.94;84748;1326;25953;-75
2022/03/03 01:23:39;;;;;;;94.20;41.80;;;;;;;-5.91;72.96;100883.04;84758;1326;22702;-74
2022/03/03 01:25:46;;;;;;;87.30;42.90;;;;;;;-5.91;73.11;100883.88;84765;1329;25294;-74
2022/03/03 01:27:52;;;;;;;95.80;43.30;;;;;;;-5.93;73.07;100885.86;84775;1326;22615;-73
2022/03/03 01:30:03;;;;;;;92.80;41.50;;;;;;;-5.97;73.12;100887.08;84053;1325;1003309;-77
2022/03/03 01:32:11;;;;;;;99.60;45.80;;;;;;;-6.02;73.05;100882.33;84771;1325;22740;-78
2022/03/03 01:34:19;;;;;;;89.70;42.80;;;;;;;-6.08;73.00;100882.27;84771;1327;24036;-76
2022/03/03 01:36:26;;;;;;;97.90;44.90;;;;;;;-6.12;73.04;100875.14;84090;1329;1003404;-73
2022/03/03 01:38:33;;;;;;;95.10;44.50;;;;;;;-6.15;73.19;100870.95;84770;1326;24246;-74
2022/03/03 01:40:40;;;;;;;91.20;41.70;;;;;;;-6.17;73.34;100869.17;84689;1331;22625;-76
2022/03/03 01:42:46;;;;;;;84.30;40.40;;;;;;;-6.19;73.44;100864.71;84797;1326;25256;-77
2022/03/03 01:44:56;;;;;;;86.30;41.80;;;;;;;-6.20;73.33;100862.98;84808;1326;22589;-73
2022/03/03 01:47:03;;;;;;;79.40;38.50;;;;;;;-6.21;73.39;100867.16;84733;1330;22675;-77
2022/03/03 01:49:13;;;;;;;80.50;40.60;;;;;;;-6.24;73.48;100867.25;84734;1324;23047;-74
2022/03/03 01:51:20;;;;;;;87.10;40.90;;;;;;;-6.24;73.58;100865.02;84037;1330;1003018;-78
2022/03/03 01:53:29;;;;;;;80.80;37.80;;;;;;;-6.25;73.55;100863.11;84737;1325;22578;-77
2022/03/03 01:55:36;;;;;;;80.70;36.80;;;;;;;-6.27;73.53;100863.23;84039;1326;1003498;-77
2022/03/03 01:57:43;;;;;;;82.40;39.50;;;;;;;-6.29;73.52;100868.73;84739;1326;23944;-77
2022/03/03 01:59:50;;;;;;;94.20;40.30;;;;;;;-6.31;73.45;100867.66;84707;1329;24248;-77
2022/03/03 02:02:01;;;;;;;90.40;42.20;;;;;;;-6.35;73.29;100863.06;84718;1326;22828;-78
2022/03/03 02:04:09;;;;;;;88.80;41.10;;;;;;;-6.40;73.32;100857.46;84662;1329;23893;-77
2022/03/03 02:06:16;;;;;;;85.00;39.00;;;;;;;-6.45;73.35;100853.19;84698;1329;24395;-78
2022/03/03 02:08:23;;;;;;;76.60;38.00;;;;;;;-6.49;73.53;100849.66;84670;1328;22817;-79
2022/03/03 02:10:30;;;;;;;83.20;40.30;;;;;;;-6.51;73.66;100848.56;84654;1329;22631;-78
2022/03/03 02:12:37;;;;;;;84.60;37.70;;;;;;;-6.52;73.67;100845.97;84655;1329;25444;-79
2022/03/03 02:14:45;;;;;;;78.70;37.30;;;;;;;-6.51;73.71;100840.60;84657;1329;22751;-73
2022/03/03 02:16:55;;;;;;;68.40;34.60;;;;;;;-6.50;73.82;100841.98;84683;1329;25604;-73
2022/03/03 02:19:05;;;;;;;76.80;37.20;;;;;;;-6.50;73.86;100848.27;84653;1328;22632;-74
2022/03/03 02:21:15;;;;;;;86.00;40.20;;;;;;;-6.48;73.93;100851.57;84676;1329;22743;-78
2022/03/03 02:23:21;;;;;;;84.70;42.10;;;;;;;-6.45;74.21;100848.96;84673;1328;25297;-77
2022/03/03 02:25:28;;;;;;;85.00;42.00;;;;;;;-6.43;74.21;100848.86;83978;1324;1003157;-74
2022/03/03 02:27:34;;;;;;;89.90;45.10;;;;;;;-6.41;74.19;100842.98;83965;1329;1003883;-73
2022/03/03 02:29:41;;;;;;;95.20;41.40;;;;;;;-6.38;74.29;100842.25;84667;1330;25558;-76
2022/03/03 02:31:48;;;;;;;92.30;43.10;;;;;;;-6.37;74.20;100836.86;84546;1332;23975;-77
2022/03/03 02:33:57;;;;;;;86.80;43.80;;;;;;;-6.35;74.24;100838.50;83974;1331;1003129;-77
2022/03/03 02:36:18;;;;;;;87.60;41.10;;;;;;;-6.33;74.38;100835.98;84664;1329;22601;-74
2022/03/03 02:38:25;;;;;;;88.20;44.30;;;;;;;-6.32;74.36;100833.48;84661;1328;25367;-74
2022/03/03 02:40:32;;;;;;;79.10;41.20;;;;;;;-6.30;74.46;100835.41;84701;1329;22627;-73
2022/03/03 02:42:39;;;;;;;80.40;40.80;;;;;;;-6.28;74.35;100837.20;84684;1329;22598;-73
2022/03/03 02:44:46;;;;;;;82.20;39.70;;;;;;;-6.26;74.52;100834.73;84624;1328;25451;-74
2022/03/03 02:46:55;;;;;;;75.10;36.50;;;;;;;-6.21;74.62;100831.98;84698;1329;22583;-73
2022/03/03 02:49:02;;;;;;;80.50;38.10;;;;;;;-6.20;74.46;100832.23;84698;1327;22587;-74
2022/03/03 02:51:09;;;;;;;80.30;40.00;;;;;;;-6.19;74.39;100830.89;84682;1329;22632;-76
2022/03/03 02:53:15;;;;;;;82.00;37.90;;;;;;;-6.19;74.50;100823.08;84661;1329;22607;-73
2022/03/03 02:55:22;;;;;;;75.70;36.70;;;;;;;-6.21;74.40;100822.48;84715;1329;22610;-73
2022/03/03 02:59:55;;;;;;;80.20;39.30;;;;;;;-6.33;74.22;100812.58;84637;1331;22657;-78
2022/03/03 03:02:05;;;;;;;81.30;39.50;;;;;;;-6.40;74.29;100810.80;84698;1331;22613;-78
2022/03/03 03:04:10;;;;;;;;;;;;;;;-6.46;74.17;100811.75;84704;1331;22564;-78
2022/03/03 03:06:17;;;;;;;87.00;38.20;;;;;;;-6.53;74.30;100807.56;84673;1329;22625;-72
2022/03/03 03:08:26;;;;;;;80.60;39.20;;;;;;;-6.58;74.35;100806.53;84663;1329;23457;-74
2022/03/03 03:10:33;;;;;;;88.70;39.40;;;;;;;-6.64;74.27;100804.59;84709;1330;22672;-74
2022/03/03 03:12:40;;;;;;;86.20;41.30;;;;;;;-6.69;74.40;100798.81;84003;1328;1015792;-74
2022/03/03 03:14:46;;;;;;;75.60;38.90;;;;;;;-6.72;74.46;100802.59;84714;1328;22588;-78
2022/03/03 03:16:56;;;;;;;85.40;38.60;;;;;;;-6.74;74.55;100802.70;84696;1326;23902;-78
2022/03/03 03:19:02;;;;;;;79.30;39.70;;;;;;;-6.75;74.76;100799.61;84713;1331;22584;-78
2022/03/03 03:21:09;;;;;;;75.80;36.00;;;;;;;-6.75;74.77;100797.75;84714;1327;22594;-78
2022/03/03 03:23:16;;;;;;;79.60;37.70;;;;;;;-6.73;74.89;100796.95;84695;1331;23849;-78
2022/03/03 03:25:26;;;;;;;79.10;36.00;;;;;;;-6.72;74.98;100790.73;84724;1331;24424;-75
2022/03/03 03:27:33;;;;;;;78.60;37.30;;;;;;;-6.74;74.80;100789.29;84665;1328;22602;-73
2022/03/03 03:29:39;;;;;;;77.00;37.30;;;;;;;-6.76;74.86;100785.85;84714;1329;22575;-73
2022/03/03 03:31:49;;;;;;;76.80;37.70;;;;;;;-6.77;75.04;100786.64;84720;1324;22778;-75
2022/03/03 03:33:55;;;;;;;86.50;38.80;;;;;;;-6.80;75.00;100792.13;84699;1324;22729;-73
2022/03/03 03:36:02;;;;;;;81.00;37.80;;;;;;;-6.85;74.97;100785.48;84720;1330;24238;-73
2022/03/03 03:38:09;;;;;;;80.30;40.50;;;;;;;-6.89;74.88;100786.36;84699;1328;22600;-73
2022/03/03 03:40:16;;;;;;;81.40;36.30;;;;;;;-6.95;74.79;100784.09;84709;1328;22823;-73
2022/03/03 03:42:28;;;;;;;79.80;41.80;;;;;;;-6.99;74.87;100779.48;84713;1330;22607;-75
2022/03/03 03:44:39;;;;;;;80.10;38.90;;;;;;;-7.04;74.93;100779.48;84662;1329;25444;-73
2022/03/03 03:46:48;;;;;;;75.00;37.90;;;;;;;-7.07;75.11;100782.59;84681;1327;22681;-73
2022/03/03 03:49:00;;;;;;;75.60;37.40;;;;;;;-7.10;75.25;100776.90;84709;1328;22612;-74
2022/03/03 03:51:11;;;;;;;70.20;36.10;;;;;;;-7.10;75.09;100771.11;84683;1329;24183;-76
2022/03/03 03:53:20;;;;;;;70.20;34.30;;;;;;;-7.08;75.26;100766.42;84701;1327;22611;-77
2022/03/03 03:55:32;;;;;;;73.70;35.00;;;;;;;-7.08;75.33;100761.52;84725;1328;24378;-78
2022/03/03 03:57:41;;;;;;;76.10;35.20;;;;;;;-7.11;75.41;100752.91;84707;1328;22603;-78
2022/03/03 03:59:55;;;;;;;75.40;36.50;;;;;;;-7.12;75.44;100752.05;84718;1328;23898;-74
2022/03/03 04:02:04;;;;;;;74.90;36.00;;;;;;;-7.13;75.68;100755.76;84719;1329;25978;-73
2022/03/03 04:04:16;;;;;;;69.10;34.90;;;;;;;-7.12;75.76;100756.98;84702;1326;22701;-73
2022/03/03 04:06:24;;;;;;;76.60;34.80;;;;;;;-7.13;75.83;100759.29;84676;1326;22577;-77
2022/03/03 04:08:34;;;;;;;77.80;37.40;;;;;;;-7.15;75.77;100762.07;84673;1329;25329;-79
2022/03/03 04:10:43;;;;;;;74.60;37.40;;;;;;;-7.18;75.78;100755.87;84708;1331;22587;-74
2022/03/03 04:12:52;;;;;;;78.20;37.30;;;;;;;-7.22;75.70;100753.15;84707;1327;22604;-73
2022/03/03 04:15:02;;;;;;;86.20;41.40;;;;;;;-7.29;75.52;100747.32;84734;1328;25310;-77
2022/03/03 04:17:12;;;;;;;83.90;39.00;;;;;;;-7.32;75.55;100749.21;83989;1326;1003237;-78
2022/03/03 04:19:24;;;;;;;92.30;42.90;;;;;;;-7.34;75.61;100750.52;84676;1329;24345;-78
2022/03/03 04:21:33;;;;;;;81.00;38.60;;;;;;;-7.35;75.78;100752.86;84666;1330;22655;-73
2022/03/03 04:23:42;;;;;;;75.30;36.90;;;;;;;-7.35;75.63;100750.62;84670;1329;22588;-74
2022/03/03 04:25:54;;;;;;;90.70;38.30;;;;;;;-7.37;75.74;100751.56;84687;1328;22605;-74
2022/03/03 04:28:06;;;;;;;82.90;36.30;;;;;;;-7.34;76.05;100748.32;84666;1325;22713;-74
2022/03/03 04:30:16;;;;;;;83.50;36.70;;;;;;;-7.32;76.01;100749.23;84680;1329;22612;-77
2022/03/03 04:32:29;;;;;;;75.90;33.30;;;;;;;-7.31;76.00;100750.77;84664;1328;24304;-77
2022/03/03 04:34:42;;;;;;;79.20;37.90;;;;;;;-7.31;76.15;100750.44;84658;1328;26494;-74
2022/03/03 04:36:52;;;;;;;76.90;37.10;;;;;;;-7.33;76.00;100757.99;83955;1325;1003364;-73
2022/03/03 04:39:04;;;;;;;71.70;35.70;;;;;;;-7.35;76.07;100758.93;84686;1329;24236;-73
2022/03/03 04:41:16;;;;;;;82.90;35.90;;;;;;;-7.37;75.89;100757.33;84701;1329;23172;-77
2022/03/03 04:43:29;;;;;;;75.70;36.50;;;;;;;-7.41;76.08;100755.81;83880;1328;1003003;-77
2022/03/03 04:45:41;;;;;;;72.80;37.60;;;;;;;-7.45;76.12;100749.02;84704;1329;22608;-77
2022/03/03 04:47:50;;;;;;;92.60;40.00;;;;;;;-7.49;75.94;100752.09;84607;1329;24764;-77
2022/03/03 04:49:59;;;;;;;82.10;39.60;;;;;;;-7.51;76.03;100750.16;84660;1329;25444;-73
2022/03/03 04:52:12;;;;;;;78.70;38.50;;;;;;;-7.52;76.06;100750.96;84664;1328;22684;-73
2022/03/03 04:54:24;;;;;;;73.60;36.40;;;;;;;-7.50;76.39;100747.29;84664;1329;25508;-73
2022/03/03 04:56:33;;;;;;;81.70;38.40;;;;;;;-7.48;76.43;100745.50;84619;1329;23052;-77
2022/03/03 04:58:44;;;;;;;72.60;34.30;;;;;;;-7.48;76.44;100742.63;84638;1326;22755;-78
2022/03/03 05:00:54;;;;;;;75.40;37.00;;;;;;;-7.48;76.37;100743.34;84720;1329;22621;-77
2022/03/03 05:03:03;;;;;;;77.70;34.50;;;;;;;-7.48;76.35;100741.77;84654;1324;22826;-78
2022/03/03 05:05:13;;;;;;;64.50;30.00;;;;;;;-7.50;76.36;100737.30;84661;1329;23947;-72
2022/03/03 05:07:22;;;;;;;59.70;30.10;;;;;;;-7.51;76.40;100735.89;83967;1326;1003926;-73
2022/03/03 05:09:34;;;;;;;77.80;36.00;;;;;;;-7.55;76.28;100734.73;84642;1329;22600;-73
2022/03/03 05:11:46;;;;;;;75.90;34.40;;;;;;;-7.58;76.41;100730.39;84653;1329;22585;-73
2022/03/03 05:13:55;;;;;;;73.80;36.40;;;;;;;-7.61;76.20;100725.83;83906;1331;1003711;-73
2022/03/03 05:16:09;;;;;;;81.50;37.60;;;;;;;-7.65;76.38;100726.37;84621;1328;25444;-73
2022/03/03 05:18:19;;;;;;;81.00;38.80;;;;;;;-7.66;76.61;100731.91;83950;1328;1003034;-73
2022/03/03 05:20:28;;;;;;;79.80;38.60;;;;;;;-7.63;76.75;100730.16;84648;1328;24282;-78
2022/03/03 05:22:37;;;;;;;84.10;39.50;;;;;;;-7.61;76.91;100728.05;84659;1331;25322;-78
2022/03/03 05:24:50;;;;;;;65.40;32.70;;;;;;;-7.57;77.04;100726.19;84661;1328;22589;-77
2022/03/03 05:27:02;;;;;;;70.20;32.80;;;;;;;-7.51;76.94;100730.15;84615;1332;22595;-78
2022/03/03 05:29:14;;;;;;;71.60;34.70;;;;;;;-7.44;77.24;100727.40;84664;1326;22690;-78
2022/03/03 05:31:23;;;;;;;76.20;36.10;;;;;;;-7.36;77.25;100725.84;84684;1331;22616;-78
2022/03/03 05:33:32;;;;;;;68.80;35.20;;;;;;;-7.29;77.22;100722.21;84674;1328;25596;-78
2022/03/03 05:35:44;;;;;;;74.00;35.10;;;;;;;-7.22;77.51;100718.07;84689;1328;22745;-73
2022/03/03 05:37:56;;;;;;;72.40;35.60;;;;;;;-7.15;77.65;100719.03;84663;1329;24077;-73
2022/03/03 05:40:10;;;;;;;73.20;34.70;;;;;;;-7.09;77.60;100716.39;84720;1329;22711;-77
2022/03/03 05:42:20;;;;;;;78.60;37.60;;;;;;;-7.04;77.55;100722.70;84659;1320;22693;-77
2022/03/03 05:44:32;;;;;;;76.20;38.50;;;;;;;-6.99;77.52;100719.15;84648;1328;23945;-73
2022/03/03 05:46:45;;;;;;;82.60;39.70;;;;;;;-6.93;77.58;100719.55;83960;1328;1003707;-73
2022/03/03 05:48:54;;;;;;;70.80;36.20;;;;;;;-6.85;77.52;100717.64;84675;1328;22587;-74
2022/03/03 05:51:06;;;;;;;69.80;35.60;;;;;;;-6.74;77.61;100718.89;84693;1325;22940;-73
2022/03/03 05:53:19;;;;;;;70.50;35.20;;;;;;;-6.63;77.66;100716.75;84668;1329;22617;-73
2022/03/03 05:55:36;;;;;;;69.50;36.10;;;;;;;-6.51;77.73;100716.52;84724;1328;23340;-73
2022/03/03 05:57:49;;;;;;;73.80;36.00;;;;;;;-6.41;77.65;100713.83;84687;1331;22589;-72
2022/03/03 05:59:58;;;;;;;77.70;38.00;;;;;;;-6.32;77.62;100708.38;84500;1329;274962;-76
2022/03/03 06:02:07;;;;;;;67.70;35.50;;;;;;;-6.23;77.75;100702.92;84671;1328;22610;-78
2022/03/03 06:04:20;;;;;;;70.00;34.90;;;;;;;-6.05;77.86;100703.21;84655;1328;22951;-78
2022/03/03 06:06:31;;;;;;;71.00;36.20;;;;;;;-5.50;78.28;100700.90;84662;1329;22804;-77
2022/03/03 06:08:54;;;;;;;81.80;38.30;;;;;;;-4.71;79.10;100701.76;84657;1328;25539;-78
2022/03/03 06:11:04;;;;;;;78.20;39.30;;;;;;;-3.90;79.74;100696.50;84696;1328;24294;-74
2022/03/03 06:13:16;;;;;;;;;;;;;;;-3.63;78.02;100696.33;84658;1329;22569;-73
2022/03/03 06:15:31;;;;;;;75.70;37.80;;;;;;;-3.62;76.60;100696.00;84685;1331;22606;-78
2022/03/03 06:17:40;;;;;;;68.80;37.60;;;;;;;-3.63;75.97;100703.31;84656;1328;22620;-78
2022/03/03 06:19:51;;;;;;;66.90;33.30;;;;;;;-3.68;75.30;100705.41;84625;1331;22633;-76
2022/03/03 06:22:04;;;;;;;74.20;36.90;;;;;;;-3.75;74.97;100704.73;84633;1329;24459;-75
2022/03/03 06:24:13;;;;;;;71.60;37.20;;;;;;;-3.77;74.77;100706.20;84686;1328;22583;-74
2022/03/03 06:26:25;;;;;;;69.80;36.90;;;;;;;-3.68;74.73;100707.46;83991;1328;1003146;-78
2022/03/03 06:28:35;;;;;;;71.10;37.90;;;;;;;-3.26;74.81;100707.25;84702;1328;22643;-82
2022/03/03 18:00:25;;;;;;;31.40;16.80;;;;;;;0.28;64.18;100691.09;82032;1368;545496;-74
2022/03/03 18:02:38;;;;;;;33.70;16.40;;;;;;;0.28;64.13;100692.79;84206;1340;22619;-74
2022/03/03 18:04:48;;;;;;;34.50;17.50;;;;;;;0.29;64.15;100697.27;83495;1339;1003829;-75
2022/03/03 18:06:58;;;;;;;38.90;18.00;;;;;;;0.31;64.06;100701.07;84200;1339;22587;-74
2022/03/03 18:09:13;;;;;;;33.50;18.80;;;;;;;0.32;63.84;100704.50;84154;1340;22629;-73
2022/03/03 18:11:23;;;;;;;33.70;17.50;;;;;;;0.34;64.23;100704.52;84197;1343;22837;-75
2022/03/03 18:13:32;;;;;;;29.60;17.20;;;;;;;0.35;64.36;100709.18;83719;1343;504602;-75
2022/03/03 18:15:42;;;;;;;26.20;16.10;;;;;;;0.37;64.10;100709.36;84679;1327;22596;-75
2022/03/03 18:17:54;;;;;;;24.00;14.20;;;;;;;0.42;63.91;100714.72;84758;1330;22601;-74
2022/03/03 18:20:02;;;;;;;;;;;;;;;0.46;63.95;100713.04;84791;1328;22568;-76
2022/03/03 18:22:13;;;;;;;25.60;13.40;;;;;;;0.50;63.99;100721.83;84733;1322;22681;-74
2022/03/03 18:24:22;;;;;;;24.40;14.30;;;;;;;0.58;63.76;100718.10;84761;1327;24075;-74
2022/03/03 18:26:33;;;;;;;28.50;14.70;;;;;;;0.63;63.85;100716.61;84754;1328;22605;-75
2022/03/03 18:28:55;;;;;;;27.70;14.70;;;;;;;0.68;63.52;100717.67;84760;1324;22808;-74
2022/03/03 18:31:06;;;;;;;26.80;14.00;;;;;;;0.73;63.52;100719.10;84753;1326;22910;-77
2022/03/03 18:33:22;;;;;;;24.60;14.00;;;;;;;0.75;63.35;100724.44;84729;1327;24268;-78
2022/03/03 18:35:35;;;;;;;28.30;14.60;;;;;;;0.74;63.31;100724.78;84691;1328;22602;-78
2022/03/03 18:37:44;;;;;;;27.90;15.80;;;;;;;0.74;63.25;100721.33;84759;1327;25478;-79
2022/03/03 18:39:53;;;;;;;30.40;16.20;;;;;;;0.73;63.07;100720.98;84746;1330;22595;-78
2022/03/03 18:42:03;;;;;;;28.30;16.10;;;;;;;0.72;63.20;100723.72;84737;1327;22847;-78
2022/03/03 18:44:14;;;;;;;27.40;15.70;;;;;;;0.71;63.12;100723.20;84757;1327;23081;-78
2022/03/03 18:46:23;;;;;;;30.40;15.10;;;;;;;0.68;63.30;100719.05;84048;1327;1003036;-77
2022/03/03 18:48:37;;;;;;;31.40;17.90;;;;;;;0.64;63.15;100720.40;84747;1329;22831;-79
2022/03/03 18:50:46;;;;;;;42.10;20.50;;;;;;;0.60;63.24;100717.27;84771;1329;22645;-73
2022/03/03 18:52:57;;;;;;;39.20;20.10;;;;;;;0.56;63.11;100717.77;84057;1327;1003808;-74
2022/03/03 18:58:46;;;;;;;31.00;16.80;;;;;;;0.39;63.65;100718.48;84621;1330;22717;-74
2022/03/03 19:00:56;;;;;;;29.70;17.10;;;;;;;0.34;63.47;100720.31;84646;1333;26701;-73
2022/03/03 19:03:06;;;;;;;31.60;16.00;;;;;;;0.30;63.66;100722.50;84638;1329;25631;-73
2022/03/03 19:05:16;;;;;;;32.10;16.80;;;;;;;0.25;63.70;100721.43;83900;1330;1003229;-77
2022/03/03 19:07:29;;;;;;;34.30;17.00;;;;;;;0.17;63.74;100722.39;83948;1329;1003231;-77
2022/03/03 19:09:44;;;;;;;31.90;17.20;;;;;;;0.11;64.04;100725.59;84655;1330;25548;-76
2022/03/03 19:11:55;;;;;;;29.30;16.50;;;;;;;0.05;64.09;100724.14;83926;1330;1003447;-77
2022/03/03 19:14:05;;;;;;;31.20;16.10;;;;;;;-0.01;64.23;100727.86;84631;1330;24271;-76
2022/03/03 19:20:54;;;;;;;;;;;;;;;;;;;;;
2022/03/03 19:34:35;;;;;;;38.10;20.90;;;;;;;0.07;65.88;100745.27;84652;1330;24228;-76
2022/03/03 19:37:06;;;;;;;40.20;22.20;;;;;;;0.11;66.00;100744.97;84619;1330;25636;-78
2022/03/03 19:39:29;;;;;;;48.40;23.70;;;;;;;0.15;65.90;100748.79;84588;1332;25430;-79
2022/03/03 19:41:42;;;;;;;55.60;26.20;;;;;;;0.18;65.87;100752.06;84623;1329;23886;-78
2022/03/03 19:43:53;;;;;;;49.70;25.00;;;;;;;0.19;65.97;100749.84;84637;1327;22697;-77
2022/03/03 19:46:07;;;;;;;51.50;25.80;;;;;;;0.19;65.91;100751.56;83913;1325;1003544;-77
2022/03/03 19:48:25;;;;;;;55.00;26.20;;;;;;;0.19;65.92;100754.30;84654;1329;22611;-77
2022/03/03 19:50:36;;;;;;;51.70;25.70;;;;;;;0.19;66.00;100751.91;84628;1327;22804;-77
2022/03/03 19:52:47;;;;;;;46.80;25.00;;;;;;;0.19;65.91;100750.19;84622;1330;22682;-76
2022/03/03 19:55:02;;;;;;;52.00;26.30;;;;;;;0.18;66.15;100746.41;84611;1331;22602;-77
2022/03/03 19:57:18;;;;;;;57.80;26.70;;;;;;;0.18;66.38;100749.84;84630;1333;22610;-78
2022/03/03 19:59:27;;;;;;;52.70;27.30;;;;;;;0.18;66.35;100748.11;84702;1322;22598;-75
2022/03/03 20:01:42;;;;;;;53.80;24.80;;;;;;;0.17;66.07;100746.06;84494;1333;22611;-74
2022/03/03 20:03:57;;;;;;;47.50;26.20;;;;;;;0.15;66.24;100746.21;84725;1328;22573;-74
2022/03/03 20:06:10;;;;;;;46.00;23.40;;;;;;;0.16;66.64;100747.77;84601;1327;22851;-79
2022/03/03 20:08:22;;;;;;;44.30;23.10;;;;;;;0.16;66.46;100748.95;84745;1327;22732;-80
2022/03/03 20:13:00;;;;;;;49.40;25.30;;;;;;;0.20;66.87;100749.02;84751;1329;22596;-76
2022/03/03 20:15:11;;;;;;;49.10;25.80;;;;;;;0.22;66.72;100752.96;84663;1329;25322;-74
2022/03/03 20:17:22;;;;;;;50.60;27.80;;;;;;;0.25;66.66;100752.15;84736;1327;22588;-74
2022/03/03 20:19:32;;;;;;;56.60;27.90;;;;;;;0.28;66.92;100750.80;84739;1329;22593;-75
2022/03/03 20:21:43;;;;;;;58.40;28.60;;;;;;;0.30;66.62;100749.27;84720;1327;25910;-74
2022/03/03 20:23:52;;;;;;;59.30;29.20;;;;;;;0.31;66.85;100751.01;84712;1327;22700;-75
2022/03/03 20:26:03;;;;;;;52.10;29.20;;;;;;;0.32;67.00;100749.63;84720;1329;22589;-75
2022/03/03 20:28:14;;;;;;;48.40;28.20;;;;;;;0.31;66.78;100750.50;84713;1325;22702;-74
2022/03/03 20:30:23;;;;;;;52.10;27.60;;;;;;;0.29;66.84;100752.52;84737;1327;22584;-79
2022/03/03 20:32:39;;;;;;;50.10;27.00;;;;;;;0.27;66.61;100755.42;84765;1327;22605;-80
2022/03/03 20:34:48;;;;;;;54.80;29.70;;;;;;;0.26;66.89;100750.27;84695;1329;22581;-76
2022/03/03 20:36:58;;;;;;;52.60;27.80;;;;;;;0.26;66.94;100747.52;84726;1328;22584;-75
2022/03/03 20:39:08;;;;;;;52.90;27.70;;;;;;;0.24;67.07;100741.16;84682;1330;25387;-76
2022/03/03 20:41:18;;;;;;;54.30;28.90;;;;;;;0.23;66.93;100741.14;84750;1326;22618;-78
2022/03/03 20:43:27;;;;;;;58.70;28.20;;;;;;;0.25;67.08;100742.03;84744;1327;22770;-79
2022/03/03 20:45:36;;;;;;;54.00;27.60;;;;;;;0.27;67.29;100744.95;84765;1327;24344;-79
2022/03/03 20:47:47;;;;;;;44.50;24.70;;;;;;;0.28;67.39;100740.84;84725;1327;22647;-80
2022/03/03 20:49:59;;;;;;;49.40;26.00;;;;;;;0.31;67.37;100740.55;84642;1326;22811;-75
2022/03/03 20:52:10;;;;;;;46.60;24.60;;;;;;;0.33;67.55;100736.08;84717;1327;24454;-75
2022/03/03 20:54:20;;;;;;;40.70;22.70;;;;;;;0.36;67.37;100728.92;84609;1330;22626;-75
2022/03/03 20:56:30;;;;;;;42.90;23.20;;;;;;;0.39;67.40;100733.55;84734;1327;22602;-77
2022/03/03 20:58:38;;;;;;;;;;;;;;;0.39;67.53;100737.17;84705;1328;22723;-77
2022/03/03 21:00:54;;;;;;;46.00;23.60;;;;;;;0.37;67.51;100732.35;84663;1330;22587;-80
2022/03/03 21:03:06;;;;;;;40.80;21.90;;;;;;;0.35;67.65;100730.45;84600;1333;22597;-79
2022/03/03 21:05:17;;;;;;;35.90;21.00;;;;;;;0.32;67.43;100728.18;84737;1327;22602;-74
2022/03/03 21:07:28;;;;;;;39.00;22.70;;;;;;;0.27;67.62;100727.61;84729;1328;22654;-76
2022/03/03 21:09:39;;;;;;;39.50;20.30;;;;;;;0.22;67.38;100728.25;84767;1328;22706;-75
2022/03/03 21:11:49;;;;;;;40.90;22.00;;;;;;;0.18;67.74;100731.48;84746;1327;25633;-77
2022/03/03 21:14:01;;;;;;;37.70;22.70;;;;;;;0.16;67.71;100731.64;84666;1330;22692;-75
2022/03/03 21:16:14;;;;;;;36.20;20.70;;;;;;;0.15;67.67;100730.77;84747;1327;22593;-76
2022/03/03 21:18:23;;;;;;;37.90;20.50;;;;;;;0.11;67.88;100727.30;84729;1327;25302;-77
2022/03/03 21:20:32;;;;;;;35.00;19.80;;;;;;;0.10;68.01;100727.27;84697;1326;22609;-81
2022/03/03 21:22:45;;;;;;;34.90;19.30;;;;;;;0.06;68.04;100728.61;84755;1327;22583;-81
2022/03/03 21:24:54;;;;;;;36.80;20.00;;;;;;;0.03;68.29;100728.23;84749;1331;25950;-71
2022/03/03 21:27:10;;;;;;;35.40;18.70;;;;;;;0.00;68.08;100732.16;84718;1323;22596;-75
2022/03/03 21:29:19;;;;;;;38.40;19.20;;;;;;;0.01;68.66;100727.89;84717;1325;22591;-75
2022/03/03 21:31:29;;;;;;;36.40;21.50;;;;;;;0.03;68.32;100722.58;84729;1329;22585;-80
2022/03/03 21:33:42;;;;;;;34.20;20.80;;;;;;;0.03;68.43;100718.45;84735;1328;22584;-81
2022/03/03 21:35:53;;;;;;;37.90;21.10;;;;;;;0.04;68.29;100720.86;84739;1327;22616;-79
2022/03/03 21:38:03;;;;;;;37.30;20.70;;;;;;;0.02;68.53;100720.67;84817;1327;22593;-79
2022/03/03 21:40:14;;;;;;;35.90;22.00;;;;;;;-0.01;68.43;100719.63;84807;1326;22682;-77
2022/03/03 21:42:27;;;;;;;40.60;21.90;;;;;;;-0.03;68.38;100724.58;84683;1330;22596;-75
2022/03/03 21:44:38;;;;;;;45.10;23.30;;;;;;;-0.04;68.59;100727.84;84783;1326;22600;-75
2022/03/03 21:46:49;;;;;;;46.90;22.90;;;;;;;-0.05;68.60;100726.79;84788;1327;22590;-75